Wetterdaten: Woche 20.09.04 - 26.09.04 (KW39)
Datum Zeit Temperatur Luftfeuchte Luftdruck Regenmenge Wind Richtung Taupunkt Windchill
20.09.2004 00:00 15.0 C 99 % 1021.1 hPa 0.0 l/m 0.0 km/h (0 Bft) N 14.9 C 15.0 C
20.09.2004 01:00 14.7 C 99 % 1020.1 hPa 0.0 l/m 1.1 km/h (1 Bft) O-SO 14.6 C 14.7 C
20.09.2004 02:00 14.1 C 100 % 1020.2 hPa 0.0 l/m 0.3 km/h (0 Bft) O-SO 14.0 C 14.1 C
20.09.2004 03:00 13.5 C 100 % 1020.3 hPa 0.0 l/m 2.6 km/h (1 Bft) O-SO 13.5 C 13.5 C
20.09.2004 04:00 13.6 C 100 % 1020.2 hPa 0.0 l/m 0.0 km/h (0 Bft) N 13.6 C 13.6 C
20.09.2004 05:00 13.8 C 100 % 1019.6 hPa 0.0 l/m 0.5 km/h (0 Bft) O-SO 13.8 C 13.8 C
20.09.2004 06:00 14.0 C 100 % 1019.2 hPa 0.0 l/m 0.3 km/h (0 Bft) O-SO 14.0 C 14.0 C
20.09.2004 07:00 14.2 C 100 % 1019.2 hPa 0.0 l/m 0.0 km/h (0 Bft) N 14.2 C 14.2 C
20.09.2004 08:00 14.9 C 97 % 1019.3 hPa 0.0 l/m 1.2 km/h (1 Bft) W-NW 14.5 C 14.9 C
20.09.2004 09:00 15.7 C 80 % 1019.5 hPa 0.0 l/m 7.7 km/h (2 Bft) W-NW 12.2 C 15.7 C
20.09.2004 10:00 16.1 C 74 % 1019.9 hPa 0.0 l/m 16.0 km/h (3 Bft) W-NW 11.5 C 16.1 C
20.09.2004 11:00 17.0 C 66 % 1019.8 hPa 0.0 l/m 18.8 km/h (3 Bft) W-NW 10.6 C 17.0 C
20.09.2004 12:00 17.6 C 57 % 1019.7 hPa 0.0 l/m 20.9 km/h (4 Bft) W-NW 9.1 C 17.6 C
20.09.2004 13:00 17.9 C 56 % 1019.2 hPa 0.0 l/m 19.4 km/h (3 Bft) W-NW 9.1 C 17.9 C
20.09.2004 14:00 18.1 C 55 % 1018.6 hPa 0.0 l/m 23.7 km/h (4 Bft) W-NW 8.8 C 18.1 C
20.09.2004 15:00 19.3 C 51 % 1018.0 hPa 0.0 l/m 19.3 km/h (3 Bft) W-NW 9.0 C 19.3 C
20.09.2004 16:00 19.6 C 51 % 1017.4 hPa 0.0 l/m 18.4 km/h (3 Bft) W-NW 9.1 C 19.6 C
20.09.2004 17:00 19.1 C 53 % 1016.6 hPa 0.0 l/m 21.2 km/h (4 Bft) W-NW 9.2 C 19.1 C
20.09.2004 18:00 18.1 C 61 % 1016.6 hPa 0.0 l/m 26.0 km/h (4 Bft) W-NW 10.4 C 18.1 C
20.09.2004 19:00 15.9 C 65 % 1017.8 hPa 0.0 l/m 24.4 km/h (4 Bft) W-NW 9.2 C 15.9 C
20.09.2004 20:00 15.0 C 65 % 1018.2 hPa 0.0 l/m 21.4 km/h (4 Bft) W-NW 8.6 C 15.0 C
20.09.2004 21:00 15.1 C 65 % 1019.0 hPa 0.0 l/m 34.2 km/h (5 Bft) W-NW 8.5 C 15.1 C
20.09.2004 22:00 14.7 C 67 % 1019.1 hPa 0.0 l/m 26.0 km/h (4 Bft) W-NW 8.6 C 14.7 C
20.09.2004 23:00 14.8 C 66 % 1019.1 hPa 0.0 l/m 22.6 km/h (4 Bft) W-NW 8.6 C 14.8 C
21.09.2004 00:00 14.7 C 68 % 1019.1 hPa 0.0 l/m 24.9 km/h (4 Bft) W-NW 8.8 C 14.7 C
21.09.2004 01:00 14.1 C 71 % 1019.2 hPa 0.0 l/m 18.9 km/h (3 Bft) W-NW 8.9 C 14.1 C
21.09.2004 02:00 13.4 C 75 % 1019.4 hPa 0.0 l/m 10.9 km/h (2 Bft) W-NW 9.1 C 13.4 C
21.09.2004 03:00 13.6 C 71 % 1019.2 hPa 0.0 l/m 13.6 km/h (3 Bft) W-NW 8.4 C 13.6 C
21.09.2004 04:00 14.7 C 62 % 1019.1 hPa 0.0 l/m 30.0 km/h (5 Bft) W-NW 7.5 C 14.7 C
21.09.2004 05:00 14.9 C 61 % 1019.1 hPa 0.0 l/m 27.0 km/h (4 Bft) W-NW 7.4 C 14.9 C
21.09.2004 06:00 14.7 C 64 % 1019.1 hPa 0.0 l/m 11.9 km/h (2 Bft) W-NW 7.9 C 14.7 C
21.09.2004 07:00 14.5 C 69 % 1019.4 hPa 0.0 l/m 13.3 km/h (3 Bft) W-NW 8.7 C 14.5 C
21.09.2004 08:00 14.8 C 70 % 1020.1 hPa 0.0 l/m 12.6 km/h (3 Bft) W-NW 9.5 C 14.8 C
21.09.2004 09:00 15.4 C 64 % 1020.0 hPa 0.0 l/m 15.3 km/h (3 Bft) W-NW 8.5 C 15.4 C
21.09.2004 10:00 15.8 C 64 % 1020.0 hPa 0.0 l/m 12.5 km/h (3 Bft) W-NW 8.9 C 15.8 C
21.09.2004 11:00 14.7 C 78 % 1021.0 hPa 0.0 l/m 18.5 km/h (3 Bft) W-NW 10.7 C 14.7 C
21.09.2004 12:00 14.4 C 88 % 1021.2 hPa 0.3 l/m 20.0 km/h (4 Bft) W-NW 12.5 C 14.4 C
21.09.2004 13:00 15.1 C 80 % 1021.0 hPa 0.0 l/m 20.6 km/h (4 Bft) W-NW 11.6 C 15.1 C
21.09.2004 14:00 14.5 C 76 % 1021.2 hPa 0.0 l/m 33.3 km/h (5 Bft) W-NW 10.3 C 14.5 C
21.09.2004 15:00 15.4 C 67 % 1021.1 hPa 0.0 l/m 26.3 km/h (4 Bft) W-NW 9.3 C 15.4 C
21.09.2004 16:00 16.7 C 63 % 1020.8 hPa 0.0 l/m 21.9 km/h (4 Bft) W-NW 9.6 C 16.7 C
21.09.2004 17:00 16.3 C 64 % 1021.0 hPa 0.0 l/m 21.8 km/h (4 Bft) W-NW 9.3 C 16.3 C
21.09.2004 18:00 15.7 C 69 % 1021.0 hPa 0.0 l/m 17.0 km/h (3 Bft) W-NW 10.0 C 15.7 C
21.09.2004 19:00 14.4 C 69 % 1021.8 hPa 0.0 l/m 23.2 km/h (4 Bft) W-NW 8.7 C 14.4 C
21.09.2004 20:00 13.6 C 67 % 1022.4 hPa 0.0 l/m 20.7 km/h (4 Bft) W-NW 7.6 C 13.6 C
21.09.2004 21:00 12.8 C 70 % 1023.5 hPa 0.0 l/m 18.0 km/h (3 Bft) W-NW 7.4 C 12.8 C
21.09.2004 22:00 12.4 C 71 % 1023.6 hPa 0.0 l/m 18.6 km/h (3 Bft) W-NW 7.2 C 12.4 C
21.09.2004 23:00 12.0 C 73 % 1023.6 hPa 0.0 l/m 21.8 km/h (4 Bft) W-NW 7.4 C 12.0 C
22.09.2004 00:00 12.7 C 67 % 1023.5 hPa 0.0 l/m 27.6 km/h (4 Bft) W-NW 6.8 C 12.7 C
22.09.2004 01:00 11.8 C 70 % 1023.6 hPa 0.0 l/m 16.6 km/h (3 Bft) W-NW 6.5 C 11.8 C
22.09.2004 02:00 11.5 C 70 % 1023.7 hPa 0.0 l/m 16.0 km/h (3 Bft) W-NW 6.2 C 11.5 C
22.09.2004 03:00 11.2 C 70 % 1023.5 hPa 0.0 l/m 12.2 km/h (2 Bft) W-NW 5.9 C 11.2 C
22.09.2004 04:00 11.4 C 68 % 1023.4 hPa 0.0 l/m 21.5 km/h (4 Bft) W-NW 5.8 C 11.4 C
22.09.2004 05:00 11.1 C 69 % 1023.1 hPa 0.0 l/m 14.0 km/h (3 Bft) W-NW 5.6 C 11.1 C
22.09.2004 06:00 10.7 C 69 % 1023.7 hPa 0.0 l/m 12.8 km/h (3 Bft) W-NW 5.2 C 10.7 C
22.09.2004 07:00 10.8 C 67 % 1023.8 hPa 0.0 l/m 19.9 km/h (4 Bft) W-NW 4.8 C 10.8 C
22.09.2004 08:00 11.8 C 60 % 1023.6 hPa 0.0 l/m 22.4 km/h (4 Bft) W-NW 4.3 C 11.8 C
22.09.2004 09:00 12.1 C 56 % 1023.8 hPa 0.0 l/m 22.9 km/h (4 Bft) W-NW 3.5 C 12.1 C
22.09.2004 10:00 12.6 C 51 % 1024.6 hPa 0.0 l/m 28.1 km/h (4 Bft) W-NW 2.8 C 12.6 C
22.09.2004 11:00 13.1 C 51 % 1024.5 hPa 0.0 l/m 28.3 km/h (4 Bft) W-NW 3.1 C 13.1 C
22.09.2004 12:00 13.4 C 49 % 1024.2 hPa 0.0 l/m 22.9 km/h (4 Bft) W-NW 3.0 C 13.4 C
22.09.2004 13:00 13.7 C 49 % 1023.4 hPa 0.0 l/m 22.3 km/h (4 Bft) W-NW 3.1 C 13.7 C
22.09.2004 14:00 14.9 C 47 % 1022.5 hPa 0.0 l/m 17.9 km/h (3 Bft) W-NW 3.5 C 14.9 C
22.09.2004 15:00 15.4 C 44 % 1022.1 hPa 0.0 l/m 26.5 km/h (4 Bft) W-NW 3.3 C 15.4 C
22.09.2004 16:00 14.6 C 48 % 1021.6 hPa 0.0 l/m 27.1 km/h (4 Bft) NW 3.6 C 14.6 C
22.09.2004 17:00 14.7 C 50 % 1020.9 hPa 0.0 l/m 18.8 km/h (3 Bft) W-NW 4.4 C 14.7 C
22.09.2004 18:00 14.2 C 56 % 1020.2 hPa 0.0 l/m 9.2 km/h (2 Bft) W-NW 5.6 C 14.2 C
22.09.2004 19:00 13.5 C 63 % 1020.3 hPa 0.0 l/m 13.9 km/h (3 Bft) W-NW 6.6 C 13.5 C
22.09.2004 20:00 13.3 C 64 % 1020.3 hPa 0.0 l/m 10.7 km/h (2 Bft) W-NW 6.7 C 13.3 C
22.09.2004 21:00 13.3 C 66 % 1020.2 hPa 0.0 l/m 9.5 km/h (2 Bft) W-NW 7.0 C 13.3 C
22.09.2004 22:00 13.8 C 63 % 1019.2 hPa 0.0 l/m 7.7 km/h (2 Bft) W-NW 6.9 C 13.8 C
22.09.2004 23:00 14.4 C 61 % 1019.0 hPa 0.0 l/m 27.0 km/h (4 Bft) W-NW 6.9 C 14.4 C
23.09.2004 00:00 14.6 C 62 % 1018.1 hPa 0.0 l/m 33.6 km/h (5 Bft) W-NW 7.3 C 14.6 C
23.09.2004 01:00 14.6 C 64 % 1018.1 hPa 0.0 l/m 32.1 km/h (5 Bft) W-NW 7.8 C 14.6 C
23.09.2004 02:00 14.7 C 63 % 1017.4 hPa 0.0 l/m 31.2 km/h (5 Bft) W-NW 7.7 C 14.7 C
23.09.2004 03:00 13.4 C 76 % 1017.2 hPa 0.0 l/m 15.2 km/h (3 Bft) W-NW 9.2 C 13.4 C
23.09.2004 04:00 11.9 C 93 % 1017.4 hPa 0.6 l/m 2.5 km/h (1 Bft) O-SO 10.7 C 11.9 C
23.09.2004 05:00 11.7 C 96 % 1017.4 hPa 0.0 l/m 2.2 km/h (1 Bft) SO 11.1 C 11.7 C
23.09.2004 06:00 11.9 C 98 % 1016.8 hPa 0.0 l/m 6.1 km/h (2 Bft) SO 11.6 C 11.9 C
23.09.2004 07:00 12.3 C 97 % 1016.3 hPa 0.0 l/m 4.4 km/h (1 Bft) W-NW 11.8 C 12.3 C
23.09.2004 08:00 12.7 C 96 % 1016.2 hPa 0.3 l/m 8.9 km/h (2 Bft) W-NW 12.0 C 12.7 C
23.09.2004 09:00 13.4 C 93 % 1016.1 hPa 0.3 l/m 8.0 km/h (2 Bft) W-NW 12.3 C 13.4 C
23.09.2004 10:00 14.2 C 90 % 1016.0 hPa 0.3 l/m 4.6 km/h (1 Bft) W 12.6 C 14.2 C
23.09.2004 11:00 14.8 C 88 % 1015.3 hPa 0.0 l/m 7.7 km/h (2 Bft) W 12.8 C 14.8 C
23.09.2004 12:00 15.5 C 81 % 1014.7 hPa 0.0 l/m 14.3 km/h (3 Bft) W 12.1 C 15.5 C
23.09.2004 13:00 15.0 C 86 % 1014.2 hPa 0.6 l/m 13.3 km/h (3 Bft) W-NW 12.7 C 15.0 C
23.09.2004 14:00 14.2 C 95 % 1014.0 hPa 1.2 l/m 19.8 km/h (3 Bft) W-NW 13.5 C 14.2 C
23.09.2004 15:00 14.3 C 96 % 1012.9 hPa 0.9 l/m 25.0 km/h (4 Bft) W-NW 13.7 C 14.3 C
23.09.2004 16:00 14.5 C 94 % 1012.4 hPa 0.0 l/m 25.2 km/h (4 Bft) W-NW 13.6 C 14.5 C
23.09.2004 17:00 14.6 C 96 % 1011.5 hPa 0.9 l/m 18.3 km/h (3 Bft) NW 13.9 C 14.6 C
23.09.2004 18:00 15.8 C 87 % 1010.3 hPa 0.0 l/m 24.7 km/h (4 Bft) W-NW 13.6 C 15.8 C
23.09.2004 19:00 15.4 C 88 % 1009.8 hPa 1.2 l/m 8.1 km/h (2 Bft) W-NW 13.4 C 15.4 C
23.09.2004 20:00 14.7 C 98 % 1010.1 hPa 0.9 l/m 4.1 km/h (1 Bft) SO 14.3 C 14.7 C
23.09.2004 21:00 14.8 C 99 % 1009.7 hPa 0.0 l/m 1.1 km/h (1 Bft) N 14.6 C 14.8 C
23.09.2004 22:00 15.1 C 99 % 1008.8 hPa 0.6 l/m 11.6 km/h (2 Bft) W-NW 14.9 C 15.1 C
23.09.2004 23:00 15.4 C 99 % 1008.6 hPa 6.2 l/m 21.5 km/h (4 Bft) NW 15.2 C 15.4 C
24.09.2004 00:00 14.4 C 100 % 1009.2 hPa 0.3 l/m 11.7 km/h (2 Bft) NW 14.3 C 14.4 C
24.09.2004 01:00 12.0 C 95 % 1010.9 hPa 0.3 l/m 4.4 km/h (1 Bft) O 11.2 C 12.0 C
24.09.2004 02:00 10.5 C 93 % 1011.7 hPa 0.9 l/m 1.3 km/h (1 Bft) O 9.4 C 10.5 C
24.09.2004 03:00 9.7 C 97 % 1012.5 hPa 0.6 l/m 2.7 km/h (1 Bft) O-SO 9.2 C 9.4 C
24.09.2004 04:00 9.3 C 100 % 1012.6 hPa 0.0 l/m 1.3 km/h (1 Bft) O-SO 9.3 C 9.2 C
24.09.2004 05:00 9.4 C 100 % 1012.9 hPa 0.0 l/m 2.1 km/h (1 Bft) O-SO 9.4 C 9.2 C
24.09.2004 06:00 9.3 C 100 % 1013.4 hPa 0.3 l/m 0.2 km/h (0 Bft) O-SO 9.3 C 9.3 C
24.09.2004 07:00 9.2 C 100 % 1014.4 hPa 0.0 l/m 0.0 km/h (0 Bft) N 9.2 C 9.2 C
24.09.2004 08:00 9.6 C 100 % 1014.6 hPa 0.0 l/m 0.5 km/h (0 Bft) O 9.6 C 9.5 C
24.09.2004 09:00 10.4 C 98 % 1014.5 hPa 0.0 l/m 2.7 km/h (1 Bft) W-NW 10.1 C 10.4 C
24.09.2004 10:00 11.0 C 85 % 1015.4 hPa 0.0 l/m 16.0 km/h (3 Bft) NW 8.6 C 11.0 C
24.09.2004 11:00 10.9 C 74 % 1015.4 hPa 0.0 l/m 18.7 km/h (3 Bft) W-NW 6.5 C 10.9 C
24.09.2004 12:00 12.5 C 68 % 1014.3 hPa 0.0 l/m 27.0 km/h (4 Bft) W-NW 6.8 C 12.5 C
24.09.2004 13:00 13.1 C 62 % 1014.1 hPa 0.0 l/m 25.8 km/h (4 Bft) NW 5.9 C 13.1 C
24.09.2004 14:00 12.4 C 65 % 1014.2 hPa 0.0 l/m 17.0 km/h (3 Bft) W-NW 5.9 C 12.4 C
24.09.2004 15:00 13.8 C 59 % 1014.0 hPa 0.0 l/m 6.0 km/h (2 Bft) W-NW 6.0 C 13.8 C
24.09.2004 16:00 13.0 C 63 % 1014.9 hPa 0.0 l/m 18.5 km/h (3 Bft) W-NW 6.1 C 13.0 C
24.09.2004 17:00 10.9 C 79 % 1015.5 hPa 0.3 l/m 16.0 km/h (3 Bft) W-NW 7.3 C 10.7 C
24.09.2004 18:00 9.8 C 89 % 1016.6 hPa 0.0 l/m 4.3 km/h (1 Bft) W-NW 8.0 C 9.3 C
24.09.2004 19:00 8.9 C 92 % 1016.9 hPa 0.0 l/m 0.2 km/h (0 Bft) W 7.6 C 8.9 C
24.09.2004 20:00 7.8 C 96 % 1018.0 hPa 0.0 l/m 0.5 km/h (0 Bft) N 7.2 C 7.7 C
24.09.2004 21:00 7.1 C 99 % 1019.0 hPa 0.0 l/m 1.8 km/h (1 Bft) O-SO 6.8 C 6.7 C
24.09.2004 22:00 6.8 C 100 % 1019.1 hPa 0.0 l/m 1.3 km/h (1 Bft) O-SO 6.8 C 6.7 C
24.09.2004 23:00 6.6 C 100 % 1019.2 hPa 0.0 l/m 4.9 km/h (1 Bft) O-SO 6.6 C 5.7 C
25.09.2004 00:00 6.9 C 100 % 1019.1 hPa 0.0 l/m 1.8 km/h (1 Bft) O-SO 6.9 C 6.6 C
25.09.2004 01:00 6.9 C 100 % 1019.1 hPa 0.0 l/m 0.0 km/h (0 Bft) N 6.9 C 6.9 C
25.09.2004 02:00 7.4 C 100 % 1019.1 hPa 0.0 l/m 0.7 km/h (0 Bft) O-SO 7.4 C 7.4 C
25.09.2004 03:00 7.7 C 100 % 1019.0 hPa 0.0 l/m 1.7 km/h (1 Bft) NW 7.7 C 7.5 C
25.09.2004 04:00 8.0 C 100 % 1019.1 hPa 0.0 l/m 3.4 km/h (1 Bft) W 8.0 C 7.5 C
25.09.2004 05:00 8.4 C 99 % 1020.0 hPa 0.0 l/m 5.4 km/h (1 Bft) W 8.2 C 7.6 C
25.09.2004 06:00 8.6 C 96 % 1019.9 hPa 0.0 l/m 4.3 km/h (1 Bft) W-NW 8.0 C 8.1 C
25.09.2004 07:00 8.7 C 93 % 1020.2 hPa 0.0 l/m 1.4 km/h (1 Bft) W 7.7 C 8.6 C
25.09.2004 08:00 9.1 C 90 % 1020.9 hPa 0.0 l/m 1.4 km/h (1 Bft) SO 7.6 C 9.0 C
25.09.2004 09:00 9.3 C 92 % 1020.9 hPa 0.3 l/m 1.3 km/h (1 Bft) NW 8.0 C 9.2 C
25.09.2004 10:00 9.6 C 94 % 1021.3 hPa 0.0 l/m 0.2 km/h (0 Bft) N 8.7 C 9.6 C
25.09.2004 11:00 10.3 C 91 % 1021.8 hPa 0.0 l/m 0.7 km/h (0 Bft) W 8.8 C 10.3 C
25.09.2004 12:00 10.9 C 89 % 1021.7 hPa 0.0 l/m 0.7 km/h (0 Bft) S 9.1 C 10.9 C
25.09.2004 13:00 11.3 C 89 % 1021.4 hPa 0.0 l/m 1.0 km/h (0 Bft) S-SO 9.6 C 11.3 C
25.09.2004 14:00 12.2 C 85 % 1020.5 hPa 0.0 l/m 3.4 km/h (1 Bft) SO 9.8 C 12.2 C
25.09.2004 15:00 11.5 C 90 % 1021.4 hPa 1.9 l/m 3.0 km/h (1 Bft) O-SO 10.0 C 11.5 C
25.09.2004 16:00 13.1 C 84 % 1021.4 hPa 0.0 l/m 3.7 km/h (1 Bft) O-SO 10.4 C 13.1 C
25.09.2004 17:00 11.9 C 81 % 1021.6 hPa 0.0 l/m 9.3 km/h (2 Bft) W-NW 8.7 C 11.9 C
25.09.2004 18:00 11.2 C 86 % 1022.0 hPa 0.3 l/m 9.6 km/h (2 Bft) W-NW 8.9 C 11.2 C
25.09.2004 19:00 10.1 C 95 % 1022.8 hPa 0.0 l/m 0.7 km/h (0 Bft) SW 9.3 C 10.1 C
25.09.2004 20:00 9.9 C 97 % 1022.9 hPa 0.3 l/m 0.9 km/h (0 Bft) S-SO 9.5 C 9.8 C
25.09.2004 21:00 9.7 C 98 % 1023.0 hPa 0.0 l/m 0.1 km/h (0 Bft) W 9.5 C 9.7 C
25.09.2004 22:00 9.3 C 100 % 1023.3 hPa 0.3 l/m 0.0 km/h (0 Bft) N 9.3 C 9.3 C
25.09.2004 23:00 9.0 C 100 % 1023.0 hPa 0.0 l/m 0.7 km/h (0 Bft) S 9.0 C 9.0 C
26.09.2004 00:00 9.1 C 100 % 1023.6 hPa 0.0 l/m 0.1 km/h (0 Bft) N 9.1 C 9.1 C
26.09.2004 01:00 9.1 C 100 % 1024.0 hPa 0.0 l/m 0.2 km/h (0 Bft) N 9.1 C 9.1 C
26.09.2004 02:00 9.0 C 100 % 1024.0 hPa 0.0 l/m 0.1 km/h (0 Bft) N 9.0 C 9.0 C
26.09.2004 03:00 8.9 C 100 % 1023.1 hPa 0.0 l/m 0.5 km/h (0 Bft) S-SO 8.9 C 8.9 C
26.09.2004 04:00 9.1 C 100 % 1023.3 hPa 0.3 l/m 0.0 km/h (0 Bft) N 9.1 C 9.1 C
26.09.2004 05:00 8.8 C 100 % 1023.7 hPa 0.3 l/m 0.0 km/h (0 Bft) N 8.8 C 8.8 C
26.09.2004 06:00 8.5 C 100 % 1023.1 hPa 0.0 l/m 2.4 km/h (1 Bft) W-NW 8.5 C 8.1 C
26.09.2004 07:00 8.0 C 100 % 1024.1 hPa 0.0 l/m 1.0 km/h (0 Bft) NW 8.0 C 7.9 C
26.09.2004 08:00 8.4 C 100 % 1024.1 hPa 0.0 l/m 0.1 km/h (0 Bft) N 8.4 C 8.4 C
26.09.2004 09:00 8.9 C 99 % 1024.0 hPa 0.0 l/m 0.0 km/h (0 Bft) N 8.7 C 8.9 C
26.09.2004 10:00 9.4 C 95 % 1024.0 hPa 0.0 l/m 0.5 km/h (0 Bft) W 8.7 C 9.4 C
26.09.2004 11:00 9.8 C 87 % 1023.9 hPa 0.3 l/m 3.4 km/h (1 Bft) W 7.8 C 9.4 C
26.09.2004 12:00 9.5 C 88 % 1024.1 hPa 0.0 l/m 0.9 km/h (0 Bft) W-SW 7.5 C 9.4 C
26.09.2004 13:00 9.8 C 94 % 1024.3 hPa 0.0 l/m 2.4 km/h (1 Bft) S-SO 8.9 C 9.7 C
26.09.2004 14:00 10.1 C 96 % 1023.9 hPa 0.3 l/m 2.1 km/h (1 Bft) O-SO 9.6 C 10.0 C
26.09.2004 15:00 10.4 C 95 % 1023.8 hPa 0.0 l/m 0.7 km/h (0 Bft) N-NO 9.6 C 10.4 C
26.09.2004 16:00 10.5 C 94 % 1023.8 hPa 0.0 l/m 0.7 km/h (0 Bft) O-SO 9.5 C 10.5 C
26.09.2004 17:00 10.2 C 94 % 1023.9 hPa 0.3 l/m 1.2 km/h (1 Bft) O-SO 9.2 C 10.2 C
26.09.2004 18:00 9.9 C 96 % 1024.4 hPa 0.6 l/m 2.2 km/h (1 Bft) O-SO 9.3 C 9.8 C
26.09.2004 19:00 9.7 C 98 % 1025.0 hPa 0.0 l/m 3.0 km/h (1 Bft) SO 9.5 C 9.5 C
26.09.2004 20:00 9.7 C 99 % 1025.0 hPa 0.0 l/m 1.6 km/h (1 Bft) SO 9.6 C 9.6 C
26.09.2004 21:00 9.6 C 100 % 1026.0 hPa 0.0 l/m 2.3 km/h (1 Bft) SO 9.6 C 9.4 C
26.09.2004 22:00 8.6 C 100 % 1026.2 hPa 0.0 l/m 0.9 km/h (0 Bft) O-SO 8.6 C 8.6 C
26.09.2004 23:00 9.2 C 100 % 1026.1 hPa 0.0 l/m 2.5 km/h (1 Bft) O-SO 9.2 C 9.1 C
Min-Datum _ 24.09.04 22.09.04 23.09.04 - 20.09.04 - 22.09.04 24.09.04
_ Min-Zeit 23:10 15:05 23:13 - 00:02 - 12:56 23:58
Minimum _ 6.4 C 42 % 1008.6 hPa - 0.0 km/h (0 Bft) - 2.4 C 4.8 C
Max-Datum _ 20.09.04 20.09.04 26.09.04 23.09.04 21.09.04 - 23.09.04 20.09.04
_ Max-Zeit 15:47 01:43 22:17 23:34 23:41 - 23:13 15:47
Maximum _ 20.7 C 100 % 1026.2 hPa 6.2 l/m 54.1 km/h
W-NW (7 Bft)
- 15.4 C 20.7 C
Durchschnitt _ 12.4 C 82 % 1019.5 hPa #22.6 l/m 11.1 km/h (2 Bft) W-NW 9.0 C 12.4 C

Durchschnitt Minimum Temp.11.9 C
Durchschnitt Maximum Temp.12.9 C
© Kaiko 2004